KLM1857 EHAM-EDDM
Flight info
| Callsign | KLM1857 |
|---|---|
| Flight time | 1h 5m |
| Altitude | 35000 |
| Route | EDUPO Z739 MISGO DCT DOJOH DCT DODEN/N0452F330 DCT TABUM DCT BOMBI T104 HAREM/N0431F270 T104 ROKIL ROKIL1B |
| Aircraft | B738/M-SDE2E3FGHIRWXY/LB1 |
Departure
| Time | 2026-05-04 19:05 |
|---|---|
| Airport | Amsterdam Airport Schiphol (EHAM) |
Arrival
| Time | 2026-05-04 20:10 |
|---|---|
| Airport | Munich Airport (EDDM) |
| Time | Latitude | Longitude | Altitude | Speed | Heading |
|---|---|---|---|---|---|
| 2026-05-04 18:14 | 52.30896 | 4.77108 | 12 ft | 0 kts | 2° |
| 2026-05-04 18:41 | 52.30885 | 4.77107 | 11 ft | 2 kts | 2° |
| 2026-05-04 18:42 | 52.30870 | 4.77107 | 11 ft | 2 kts | 2° |
| 2026-05-04 18:42 | 52.30855 | 4.77106 | 11 ft | 2 kts | 1° |
| 2026-05-04 18:42 | 52.30842 | 4.77102 | 10 ft | 0 kts | 34° |
| 2026-05-04 18:42 | 52.30837 | 4.77094 | 10 ft | 1 kts | 38° |
| 2026-05-04 18:43 | 52.30836 | 4.77094 | 10 ft | 0 kts | 38° |
| 2026-05-04 18:47 | 52.30839 | 4.77097 | 10 ft | 0 kts | 38° |
| 2026-05-04 18:48 | 52.30839 | 4.77098 | 10 ft | 0 kts | 40° |
| 2026-05-04 18:48 | 52.30843 | 4.77132 | 11 ft | 7 kts | 84° |
| 2026-05-04 18:48 | 52.30844 | 4.77238 | 11 ft | 9 kts | 91° |
| 2026-05-04 18:48 | 52.30841 | 4.77335 | 11 ft | 8 kts | 94° |
| 2026-05-04 18:49 | 52.30837 | 4.77452 | 9 ft | 16 kts | 92° |
| 2026-05-04 18:49 | 52.30841 | 4.77587 | 8 ft | 9 kts | 51° |
| 2026-05-04 18:49 | 52.30898 | 4.77610 | 9 ft | 10 kts | 2° |
| 2026-05-04 18:49 | 52.31004 | 4.77622 | 9 ft | 20 kts | 3° |
| 2026-05-04 18:50 | 52.31180 | 4.77642 | 5 ft | 29 kts | 2° |
| 2026-05-04 18:50 | 52.31386 | 4.77653 | 1 ft | 29 kts | 1° |
| 2026-05-04 18:50 | 52.31548 | 4.77495 | 1 ft | 26 kts | 304° |
| 2026-05-04 18:50 | 52.31574 | 4.77208 | 0 ft | 25 kts | 269° |
| 2026-05-04 18:51 | 52.31564 | 4.76911 | 0 ft | 28 kts | 268° |
| 2026-05-04 18:51 | 52.31551 | 4.76581 | -2 ft | 28 kts | 266° |
| 2026-05-04 18:51 | 52.31541 | 4.76261 | -2 ft | 27 kts | 267° |
| 2026-05-04 18:51 | 52.31530 | 4.75930 | -1 ft | 29 kts | 267° |
| 2026-05-04 18:52 | 52.31518 | 4.75608 | 1 ft | 27 kts | 267° |
| 2026-05-04 18:52 | 52.31507 | 4.75282 | -1 ft | 30 kts | 267° |
| 2026-05-04 18:52 | 52.31496 | 4.74941 | -4 ft | 30 kts | 268° |
| 2026-05-04 18:52 | 52.31485 | 4.74614 | -7 ft | 24 kts | 266° |
| 2026-05-04 18:53 | 52.31478 | 4.74401 | -7 ft | 12 kts | 267° |
| 2026-05-04 18:53 | 52.31506 | 4.74303 | -7 ft | 10 kts | 331° |
| 2026-05-04 18:53 | 52.31624 | 4.74300 | -7 ft | 25 kts | 2° |
| 2026-05-04 18:53 | 52.31831 | 4.74317 | -7 ft | 26 kts | 3° |
| 2026-05-04 18:54 | 52.31969 | 4.74330 | -7 ft | 13 kts | 4° |
| 2026-05-04 18:54 | 52.32026 | 4.74299 | -7 ft | 8 kts | 290° |
| 2026-05-04 18:54 | 52.32031 | 4.74206 | -7 ft | 8 kts | 274° |
| 2026-05-04 18:54 | 52.32035 | 4.74113 | -7 ft | 8 kts | 274° |
| 2026-05-04 18:55 | 52.32040 | 4.73995 | -7 ft | 13 kts | 274° |
| 2026-05-04 18:55 | 52.32054 | 4.73580 | -4 ft | 25 kts | 274° |
| 2026-05-04 18:55 | 52.32126 | 4.73304 | -5 ft | 27 kts | 319° |
| 2026-05-04 18:56 | 52.32283 | 4.73082 | -7 ft | 29 kts | 317° |
| 2026-05-04 18:56 | 52.32436 | 4.72865 | -7 ft | 28 kts | 320° |
| 2026-05-04 18:56 | 52.32582 | 4.72655 | -5 ft | 26 kts | 321° |
| 2026-05-04 18:56 | 52.32711 | 4.72458 | -4 ft | 24 kts | 313° |
| 2026-05-04 18:57 | 52.32823 | 4.72251 | -4 ft | 24 kts | 311° |
| 2026-05-04 18:57 | 52.32951 | 4.72016 | -5 ft | 28 kts | 312° |
| 2026-05-04 18:57 | 52.33080 | 4.71778 | -7 ft | 24 kts | 312° |
| 2026-05-04 18:57 | 52.33143 | 4.71585 | -7 ft | 17 kts | 282° |
| 2026-05-04 18:58 | 52.33089 | 4.71431 | -7 ft | 15 kts | 223° |
| 2026-05-04 18:58 | 52.33002 | 4.71303 | -7 ft | 20 kts | 222° |
| 2026-05-04 18:58 | 52.32893 | 4.71148 | -7 ft | 12 kts | 221° |
| 2026-05-04 18:58 | 52.32863 | 4.71059 | -7 ft | 4 kts | 270° |
| 2026-05-04 18:59 | 52.32864 | 4.71057 | -7 ft | 0 kts | 271° |
| 2026-05-04 19:01 | 52.32864 | 4.71046 | -7 ft | 3 kts | 272° |
| 2026-05-04 19:01 | 52.32865 | 4.70978 | -7 ft | 6 kts | 274° |
| 2026-05-04 19:01 | 52.32868 | 4.70915 | -7 ft | 4 kts | 275° |
| 2026-05-04 19:02 | 52.32880 | 4.70887 | -7 ft | 3 kts | 349° |
| 2026-05-04 19:02 | 52.32886 | 4.70887 | -7 ft | 0 kts | 0° |
| 2026-05-04 19:04 | 52.32915 | 4.70888 | -7 ft | 24 kts | 2° |
| 2026-05-04 19:04 | 52.33337 | 4.70925 | -7 ft | 94 kts | 2° |
| 2026-05-04 19:04 | 52.34190 | 4.71005 | -7 ft | 150 kts | 5° |
| 2026-05-04 19:04 | 52.35277 | 4.71105 | 569 ft | 151 kts | 5° |
| 2026-05-04 19:05 | 52.36252 | 4.71184 | 1389 ft | 140 kts | 6° |
| 2026-05-04 19:05 | 52.37230 | 4.71269 | 1832 ft | 148 kts | 6° |
| 2026-05-04 19:05 | 52.38357 | 4.71403 | 1996 ft | 175 kts | 7° |
| 2026-05-04 19:05 | 52.39609 | 4.71583 | 2415 ft | 188 kts | 7° |
| 2026-05-04 19:06 | 52.40968 | 4.71772 | 2781 ft | 207 kts | 6° |
| 2026-05-04 19:06 | 52.42461 | 4.71896 | 3132 ft | 225 kts | 3° |
| 2026-05-04 19:06 | 52.44096 | 4.71978 | 3578 ft | 240 kts | 3° |
| 2026-05-04 19:06 | 52.45820 | 4.72107 | 3993 ft | 255 kts | 3° |
| 2026-05-04 19:07 | 52.47599 | 4.72254 | 4637 ft | 259 kts | 3° |
| 2026-05-04 19:07 | 52.49430 | 4.72397 | 5330 ft | 263 kts | 4° |
| 2026-05-04 19:07 | 52.51181 | 4.73055 | 5999 ft | 267 kts | 26° |
| 2026-05-04 19:07 | 52.52618 | 4.75041 | 6661 ft | 273 kts | 50° |
| 2026-05-04 19:08 | 52.53680 | 4.77604 | 7330 ft | 278 kts | 61° |
| 2026-05-04 19:08 | 52.54220 | 4.80672 | 7985 ft | 283 kts | 86° |
| 2026-05-04 19:08 | 52.54097 | 4.83904 | 8615 ft | 290 kts | 103° |
| 2026-05-04 19:08 | 52.53196 | 4.86831 | 9272 ft | 292 kts | 131° |
| 2026-05-04 19:09 | 52.51689 | 4.89025 | 9971 ft | 294 kts | 146° |
| 2026-05-04 19:09 | 52.49908 | 4.90756 | 10483 ft | 304 kts | 150° |
| 2026-05-04 19:09 | 52.48039 | 4.92586 | 10869 ft | 320 kts | 148° |
| 2026-05-04 19:09 | 52.46167 | 4.94599 | 11195 ft | 334 kts | 146° |
| 2026-05-04 19:10 | 52.44209 | 4.96812 | 11496 ft | 350 kts | 146° |
| 2026-05-04 19:10 | 52.42862 | 4.98360 | 11669 ft | 359 kts | 145° |
| 2026-05-04 19:10 | 52.40079 | 5.01574 | 12260 ft | 371 kts | 145° |
| 2026-05-04 19:10 | 52.37967 | 5.04015 | 12900 ft | 374 kts | 145° |
| 2026-05-04 19:11 | 52.35818 | 5.06496 | 13550 ft | 378 kts | 145° |
| 2026-05-04 19:11 | 52.33697 | 5.09071 | 14199 ft | 382 kts | 140° |
| 2026-05-04 19:11 | 52.31810 | 5.12071 | 14892 ft | 384 kts | 134° |
| 2026-05-04 19:11 | 52.30009 | 5.15318 | 15548 ft | 387 kts | 132° |
| 2026-05-04 19:12 | 52.28236 | 5.18603 | 16199 ft | 390 kts | 131° |
| 2026-05-04 19:12 | 52.24614 | 5.25291 | 17522 ft | 393 kts | 131° |
| 2026-05-04 19:12 | 52.22928 | 5.28818 | 18090 ft | 397 kts | 127° |
| 2026-05-04 19:13 | 52.21347 | 5.32475 | 18679 ft | 400 kts | 125° |
| 2026-05-04 19:13 | 52.19785 | 5.36161 | 19221 ft | 404 kts | 125° |
| 2026-05-04 19:13 | 52.18185 | 5.39905 | 19761 ft | 407 kts | 126° |
| 2026-05-04 19:13 | 52.16559 | 5.43674 | 20265 ft | 411 kts | 126° |
| 2026-05-04 19:14 | 52.14901 | 5.47494 | 20787 ft | 415 kts | 126° |
| 2026-05-04 19:14 | 52.13230 | 5.51334 | 21310 ft | 418 kts | 126° |
| 2026-05-04 19:14 | 52.11549 | 5.55186 | 21817 ft | 421 kts | 126° |
| 2026-05-04 19:14 | 52.09843 | 5.59083 | 22343 ft | 423 kts | 126° |
| 2026-05-04 19:15 | 52.08123 | 5.63007 | 22853 ft | 426 kts | 126° |
| 2026-05-04 19:15 | 52.06392 | 5.66938 | 23383 ft | 428 kts | 128° |
| 2026-05-04 19:15 | 52.03903 | 5.71973 | 24032 ft | 431 kts | 133° |
| 2026-05-04 19:15 | 52.02586 | 5.74422 | 24360 ft | 432 kts | 133° |
| 2026-05-04 19:16 | 52.00612 | 5.78044 | 24850 ft | 435 kts | 133° |
| 2026-05-04 19:16 | 51.98594 | 5.81743 | 25303 ft | 438 kts | 134° |
| 2026-05-04 19:16 | 51.96565 | 5.85478 | 25743 ft | 441 kts | 134° |
| 2026-05-04 19:16 | 51.94540 | 5.89225 | 26173 ft | 444 kts | 134° |
| 2026-05-04 19:17 | 51.92521 | 5.92972 | 26581 ft | 447 kts | 134° |
| 2026-05-04 19:17 | 51.90490 | 5.96744 | 27043 ft | 448 kts | 134° |
| 2026-05-04 19:17 | 51.88459 | 6.00513 | 27499 ft | 450 kts | 134° |
| 2026-05-04 19:17 | 51.86445 | 6.04248 | 27942 ft | 451 kts | 134° |
| 2026-05-04 19:18 | 51.84352 | 6.08115 | 28301 ft | 455 kts | 134° |
| 2026-05-04 19:18 | 51.82260 | 6.11959 | 28662 ft | 458 kts | 135° |
| 2026-05-04 19:18 | 51.80154 | 6.15824 | 29051 ft | 460 kts | 135° |
| 2026-05-04 19:18 | 51.78024 | 6.19724 | 29434 ft | 462 kts | 135° |
| 2026-05-04 19:19 | 51.75896 | 6.23607 | 29751 ft | 465 kts | 136° |
| 2026-05-04 19:19 | 51.73651 | 6.27361 | 30165 ft | 464 kts | 140° |
| 2026-05-04 19:19 | 51.71337 | 6.30896 | 30668 ft | 462 kts | 142° |
| 2026-05-04 19:19 | 51.68971 | 6.34432 | 31214 ft | 460 kts | 142° |
| 2026-05-04 19:20 | 51.66653 | 6.37899 | 31754 ft | 457 kts | 142° |
| 2026-05-04 19:20 | 51.64336 | 6.41384 | 32357 ft | 453 kts | 142° |
| 2026-05-04 19:20 | 51.62062 | 6.44821 | 32724 ft | 451 kts | 142° |
| 2026-05-04 19:20 | 51.59811 | 6.48233 | 32920 ft | 447 kts | 142° |
| 2026-05-04 19:21 | 51.57566 | 6.51645 | 32947 ft | 442 kts | 142° |
| 2026-05-04 19:21 | 51.53130 | 6.58392 | 32949 ft | 438 kts | 142° |
| 2026-05-04 19:22 | 51.48758 | 6.65032 | 32949 ft | 439 kts | 142° |
| 2026-05-04 19:22 | 51.44418 | 6.71615 | 32951 ft | 438 kts | 142° |
| 2026-05-04 19:23 | 51.40033 | 6.78252 | 32952 ft | 438 kts | 142° |
| 2026-05-04 19:23 | 51.35638 | 6.84888 | 32953 ft | 438 kts | 143° |
| 2026-05-04 19:24 | 51.31250 | 6.91501 | 32954 ft | 439 kts | 143° |
| 2026-05-04 19:24 | 51.26881 | 6.98062 | 32951 ft | 439 kts | 142° |
| 2026-05-04 19:25 | 51.22465 | 7.04676 | 32949 ft | 442 kts | 142° |
| 2026-05-04 19:25 | 51.18074 | 7.11240 | 32947 ft | 439 kts | 142° |
| 2026-05-04 19:26 | 51.13622 | 7.17878 | 32946 ft | 440 kts | 142° |
| 2026-05-04 19:26 | 51.09107 | 7.24576 | 33167 ft | 451 kts | 142° |
| 2026-05-04 19:26 | 51.06812 | 7.27982 | 33567 ft | 451 kts | 142° |
| 2026-05-04 19:27 | 51.04548 | 7.31337 | 33910 ft | 451 kts | 142° |
| 2026-05-04 19:27 | 51.02259 | 7.34719 | 34147 ft | 453 kts | 142° |
| 2026-05-04 19:27 | 50.99945 | 7.38133 | 34488 ft | 453 kts | 142° |
| 2026-05-04 19:27 | 50.97653 | 7.41512 | 34848 ft | 452 kts | 142° |
| 2026-05-04 19:28 | 50.95446 | 7.44768 | 35192 ft | 450 kts | 142° |
| 2026-05-04 19:28 | 50.93103 | 7.48204 | 35421 ft | 450 kts | 142° |
| 2026-05-04 19:28 | 50.90835 | 7.51534 | 35647 ft | 451 kts | 142° |
| 2026-05-04 19:28 | 50.88596 | 7.54814 | 35794 ft | 453 kts | 142° |
| 2026-05-04 19:29 | 50.86288 | 7.58190 | 35975 ft | 454 kts | 142° |
| 2026-05-04 19:29 | 50.83967 | 7.61584 | 36276 ft | 452 kts | 142° |
| 2026-05-04 19:29 | 50.81663 | 7.64956 | 36616 ft | 449 kts | 142° |
| 2026-05-04 19:29 | 50.79413 | 7.68245 | 36948 ft | 446 kts | 142° |
| 2026-05-04 19:30 | 50.77171 | 7.71518 | 37410 ft | 440 kts | 142° |
| 2026-05-04 19:30 | 50.74978 | 7.74712 | 37708 ft | 439 kts | 142° |
| 2026-05-04 19:30 | 50.72753 | 7.77942 | 37881 ft | 440 kts | 142° |
| 2026-05-04 19:30 | 50.70507 | 7.81195 | 38095 ft | 439 kts | 142° |
| 2026-05-04 19:31 | 50.68437 | 7.84192 | 38323 ft | 439 kts | 142° |
| 2026-05-04 19:31 | 50.66346 | 7.87215 | 38505 ft | 439 kts | 142° |
| 2026-05-04 19:31 | 50.63966 | 7.90651 | 38616 ft | 441 kts | 142° |
| 2026-05-04 19:31 | 50.61737 | 7.93937 | 38832 ft | 441 kts | 140° |
| 2026-05-04 19:32 | 50.59570 | 7.97301 | 38964 ft | 442 kts | 139° |
| 2026-05-04 19:32 | 50.55234 | 8.04182 | 38964 ft | 441 kts | 139° |
| 2026-05-04 19:33 | 50.50951 | 8.10968 | 38968 ft | 440 kts | 139° |
| 2026-05-04 19:33 | 50.46658 | 8.17735 | 38966 ft | 441 kts | 139° |
| 2026-05-04 19:34 | 50.42366 | 8.24477 | 38977 ft | 441 kts | 139° |
| 2026-05-04 19:34 | 50.38058 | 8.31225 | 38964 ft | 440 kts | 139° |
| 2026-05-04 19:35 | 50.33752 | 8.37952 | 38969 ft | 439 kts | 139° |
| 2026-05-04 19:35 | 50.29437 | 8.44674 | 38964 ft | 439 kts | 139° |
| 2026-05-04 19:36 | 50.25093 | 8.51421 | 38969 ft | 440 kts | 139° |
| 2026-05-04 19:36 | 50.20753 | 8.58145 | 38973 ft | 441 kts | 139° |
| 2026-05-04 19:37 | 50.16771 | 8.64298 | 38963 ft | 440 kts | 139° |
| 2026-05-04 19:37 | 50.12242 | 8.71280 | 38968 ft | 440 kts | 140° |
| 2026-05-04 19:38 | 50.07934 | 8.77900 | 38963 ft | 439 kts | 140° |
| 2026-05-04 19:38 | 50.03588 | 8.84560 | 38964 ft | 439 kts | 140° |
| 2026-05-04 19:39 | 49.99229 | 8.91219 | 38397 ft | 443 kts | 140° |
| 2026-05-04 19:39 | 49.97050 | 8.94542 | 37656 ft | 442 kts | 140° |
| 2026-05-04 19:39 | 49.94861 | 8.97881 | 36877 ft | 437 kts | 140° |
| 2026-05-04 19:39 | 49.92723 | 9.01139 | 36276 ft | 433 kts | 140° |
| 2026-05-04 19:40 | 49.90586 | 9.04387 | 35792 ft | 431 kts | 140° |
| 2026-05-04 19:40 | 49.88475 | 9.07591 | 35554 ft | 431 kts | 140° |
| 2026-05-04 19:40 | 49.86327 | 9.10840 | 35331 ft | 436 kts | 140° |
| 2026-05-04 19:40 | 49.84141 | 9.14142 | 35110 ft | 440 kts | 140° |
| 2026-05-04 19:41 | 49.81946 | 9.17458 | 34977 ft | 440 kts | 140° |
| 2026-05-04 19:41 | 49.77581 | 9.24046 | 34950 ft | 442 kts | 140° |
| 2026-05-04 19:42 | 49.73133 | 9.30733 | 34946 ft | 445 kts | 140° |
| 2026-05-04 19:42 | 49.68712 | 9.37351 | 34945 ft | 444 kts | 140° |
| 2026-05-04 19:43 | 49.64316 | 9.43954 | 34948 ft | 444 kts | 139° |
| 2026-05-04 19:43 | 49.59862 | 9.50596 | 34948 ft | 444 kts | 140° |
| 2026-05-04 19:44 | 49.55462 | 9.57136 | 34928 ft | 443 kts | 139° |
| 2026-05-04 19:44 | 49.53273 | 9.60384 | 34702 ft | 446 kts | 140° |
| 2026-05-04 19:44 | 49.51044 | 9.63691 | 34419 ft | 445 kts | 139° |
| 2026-05-04 19:44 | 49.48850 | 9.66944 | 34140 ft | 443 kts | 140° |
| 2026-05-04 19:45 | 49.46627 | 9.70234 | 33859 ft | 442 kts | 140° |
| 2026-05-04 19:45 | 49.44401 | 9.73524 | 33582 ft | 442 kts | 140° |
| 2026-05-04 19:45 | 49.42194 | 9.76780 | 33310 ft | 444 kts | 140° |
| 2026-05-04 19:45 | 49.39933 | 9.80111 | 33027 ft | 446 kts | 140° |
| 2026-05-04 19:46 | 49.37732 | 9.83377 | 32755 ft | 446 kts | 139° |
| 2026-05-04 19:46 | 49.35608 | 9.86833 | 32481 ft | 449 kts | 135° |
| 2026-05-04 19:46 | 49.33529 | 9.90443 | 32205 ft | 450 kts | 135° |
| 2026-05-04 19:46 | 49.31475 | 9.94062 | 31929 ft | 451 kts | 134° |
| 2026-05-04 19:47 | 49.29417 | 9.97677 | 31656 ft | 451 kts | 135° |
| 2026-05-04 19:47 | 49.27360 | 10.01266 | 31382 ft | 452 kts | 134° |
| 2026-05-04 19:47 | 49.25291 | 10.04854 | 31110 ft | 452 kts | 134° |
| 2026-05-04 19:47 | 49.23204 | 10.08456 | 30834 ft | 453 kts | 134° |
| 2026-05-04 19:48 | 49.21101 | 10.12074 | 30556 ft | 453 kts | 135° |
| 2026-05-04 19:48 | 49.19027 | 10.15632 | 30284 ft | 451 kts | 135° |
| 2026-05-04 19:48 | 49.16960 | 10.19175 | 30001 ft | 449 kts | 135° |
| 2026-05-04 19:48 | 49.14872 | 10.22749 | 29719 ft | 448 kts | 135° |
| 2026-05-04 19:49 | 49.12813 | 10.26221 | 29440 ft | 447 kts | 135° |
| 2026-05-04 19:49 | 49.10684 | 10.29683 | 29159 ft | 445 kts | 136° |
| 2026-05-04 19:49 | 49.08544 | 10.33108 | 28878 ft | 443 kts | 136° |
| 2026-05-04 19:49 | 49.06413 | 10.36511 | 28600 ft | 441 kts | 136° |
| 2026-05-04 19:50 | 49.04336 | 10.39829 | 28258 ft | 438 kts | 136° |
| 2026-05-04 19:50 | 49.02229 | 10.43194 | 27661 ft | 434 kts | 136° |
| 2026-05-04 19:50 | 49.00153 | 10.46506 | 27024 ft | 431 kts | 136° |
| 2026-05-04 19:50 | 48.98109 | 10.49763 | 26377 ft | 429 kts | 136° |
| 2026-05-04 19:51 | 48.96043 | 10.53052 | 25722 ft | 426 kts | 136° |
| 2026-05-04 19:51 | 48.94011 | 10.56286 | 25069 ft | 424 kts | 136° |
| 2026-05-04 19:51 | 48.91986 | 10.59503 | 24409 ft | 423 kts | 136° |
| 2026-05-04 19:51 | 48.89962 | 10.62717 | 23752 ft | 421 kts | 136° |
| 2026-05-04 19:52 | 48.87973 | 10.65876 | 23105 ft | 419 kts | 136° |
| 2026-05-04 19:52 | 48.85970 | 10.69052 | 22447 ft | 418 kts | 136° |
| 2026-05-04 19:52 | 48.83965 | 10.72228 | 21785 ft | 416 kts | 136° |
| 2026-05-04 19:52 | 48.81955 | 10.75406 | 21108 ft | 415 kts | 136° |
| 2026-05-04 19:53 | 48.79976 | 10.78530 | 20440 ft | 413 kts | 136° |
| 2026-05-04 19:53 | 48.78014 | 10.81615 | 19789 ft | 411 kts | 136° |
| 2026-05-04 19:53 | 48.76030 | 10.84728 | 19111 ft | 410 kts | 136° |
| 2026-05-04 19:53 | 48.74033 | 10.87856 | 18425 ft | 408 kts | 136° |
| 2026-05-04 19:54 | 48.72080 | 10.90914 | 17749 ft | 405 kts | 136° |
| 2026-05-04 19:54 | 48.70132 | 10.93961 | 17163 ft | 401 kts | 136° |
| 2026-05-04 19:54 | 48.68235 | 10.96926 | 16968 ft | 387 kts | 136° |
| 2026-05-04 19:54 | 48.66391 | 10.99804 | 16942 ft | 373 kts | 136° |
| 2026-05-04 19:55 | 48.64574 | 11.02630 | 16668 ft | 376 kts | 136° |
| 2026-05-04 19:55 | 48.62751 | 11.05457 | 16098 ft | 379 kts | 136° |
| 2026-05-04 19:55 | 48.60921 | 11.08298 | 15473 ft | 371 kts | 136° |
| 2026-05-04 19:55 | 48.59182 | 11.11042 | 14943 ft | 362 kts | 132° |
| 2026-05-04 19:56 | 48.57998 | 11.14342 | 14670 ft | 362 kts | 108° |
| 2026-05-04 19:56 | 48.57461 | 11.18081 | 14354 ft | 364 kts | 102° |
| 2026-05-04 19:56 | 48.57040 | 11.21827 | 13604 ft | 363 kts | 102° |
| 2026-05-04 19:56 | 48.56622 | 11.25537 | 12849 ft | 360 kts | 102° |
| 2026-05-04 19:57 | 48.56188 | 11.29232 | 12305 ft | 357 kts | 102° |
| 2026-05-04 19:57 | 48.55745 | 11.32904 | 11811 ft | 354 kts | 102° |
| 2026-05-04 19:57 | 48.55301 | 11.36515 | 11324 ft | 350 kts | 102° |
| 2026-05-04 19:57 | 48.54860 | 11.40073 | 11038 ft | 344 kts | 102° |
| 2026-05-04 19:58 | 48.54420 | 11.43599 | 10961 ft | 343 kts | 102° |
| 2026-05-04 19:58 | 48.53972 | 11.47161 | 10942 ft | 347 kts | 102° |
| 2026-05-04 19:58 | 48.53521 | 11.50738 | 10947 ft | 348 kts | 102° |
| 2026-05-04 19:58 | 48.53072 | 11.54299 | 10941 ft | 348 kts | 102° |
| 2026-05-04 19:59 | 48.52623 | 11.57854 | 10940 ft | 336 kts | 102° |
| 2026-05-04 19:59 | 48.52195 | 11.61242 | 10874 ft | 322 kts | 102° |
| 2026-05-04 19:59 | 48.51783 | 11.64489 | 10814 ft | 307 kts | 102° |
| 2026-05-04 19:59 | 48.51393 | 11.67554 | 10693 ft | 296 kts | 103° |
| 2026-05-04 20:00 | 48.51000 | 11.70620 | 10342 ft | 293 kts | 103° |
| 2026-05-04 20:00 | 48.50616 | 11.73606 | 9977 ft | 291 kts | 103° |
| 2026-05-04 20:00 | 48.50230 | 11.76605 | 9610 ft | 289 kts | 103° |
| 2026-05-04 20:00 | 48.49847 | 11.79583 | 9242 ft | 288 kts | 103° |
| 2026-05-04 20:01 | 48.49469 | 11.82512 | 8877 ft | 286 kts | 103° |
| 2026-05-04 20:01 | 48.49089 | 11.85456 | 8525 ft | 283 kts | 103° |
| 2026-05-04 20:01 | 48.48715 | 11.88340 | 8177 ft | 281 kts | 103° |
| 2026-05-04 20:01 | 48.48337 | 11.91254 | 7851 ft | 279 kts | 102° |
| 2026-05-04 20:02 | 48.47977 | 11.94033 | 7800 ft | 264 kts | 102° |
| 2026-05-04 20:02 | 48.47633 | 11.96679 | 7786 ft | 250 kts | 102° |
| 2026-05-04 20:02 | 48.47514 | 11.99256 | 7587 ft | 246 kts | 86° |
| 2026-05-04 20:02 | 48.47704 | 12.01814 | 7297 ft | 246 kts | 84° |
| 2026-05-04 20:03 | 48.47906 | 12.04354 | 7034 ft | 243 kts | 84° |
| 2026-05-04 20:03 | 48.48098 | 12.06883 | 6741 ft | 242 kts | 84° |
| 2026-05-04 20:03 | 48.48279 | 12.09399 | 6472 ft | 240 kts | 84° |
| 2026-05-04 20:03 | 48.48453 | 12.11888 | 6200 ft | 238 kts | 84° |
| 2026-05-04 20:04 | 48.48599 | 12.14379 | 5905 ft | 237 kts | 90° |
| 2026-05-04 20:04 | 48.48217 | 12.16752 | 5579 ft | 238 kts | 119° |
| 2026-05-04 20:04 | 48.47053 | 12.18520 | 5249 ft | 241 kts | 150° |
| 2026-05-04 20:04 | 48.45430 | 12.19104 | 4999 ft | 240 kts | 183° |
| 2026-05-04 20:05 | 48.43861 | 12.18297 | 4984 ft | 242 kts | 215° |
| 2026-05-04 20:05 | 48.42716 | 12.16459 | 4987 ft | 246 kts | 234° |
| 2026-05-04 20:05 | 48.41712 | 12.14357 | 4994 ft | 244 kts | 234° |
| 2026-05-04 20:05 | 48.40756 | 12.12360 | 4985 ft | 227 kts | 234° |
| 2026-05-04 20:06 | 48.39859 | 12.10493 | 4932 ft | 210 kts | 234° |
| 2026-05-04 20:06 | 48.39068 | 12.08750 | 4910 ft | 195 kts | 243° |
| 2026-05-04 20:06 | 48.38640 | 12.06824 | 4692 ft | 191 kts | 261° |
| 2026-05-04 20:06 | 48.38423 | 12.04875 | 4436 ft | 190 kts | 264° |
| 2026-05-04 20:07 | 48.38256 | 12.02910 | 4172 ft | 189 kts | 266° |
| 2026-05-04 20:07 | 48.38106 | 12.00948 | 3915 ft | 188 kts | 266° |
| 2026-05-04 20:07 | 48.37960 | 11.99001 | 3666 ft | 183 kts | 266° |
| 2026-05-04 20:07 | 48.37820 | 11.97152 | 3431 ft | 172 kts | 267° |
| 2026-05-04 20:08 | 48.37689 | 11.95412 | 3180 ft | 164 kts | 268° |
| 2026-05-04 20:08 | 48.37564 | 11.93731 | 2971 ft | 160 kts | 268° |
| 2026-05-04 20:08 | 48.37439 | 11.92067 | 2752 ft | 160 kts | 267° |
| 2026-05-04 20:08 | 48.37315 | 11.90419 | 2541 ft | 159 kts | 266° |
| 2026-05-04 20:09 | 48.37191 | 11.88781 | 2335 ft | 158 kts | 266° |
| 2026-05-04 20:09 | 48.37067 | 11.87145 | 2126 ft | 156 kts | 266° |
| 2026-05-04 20:09 | 48.36946 | 11.85541 | 1925 ft | 154 kts | 265° |
| 2026-05-04 20:09 | 48.36819 | 11.83949 | 1756 ft | 151 kts | 265° |
| 2026-05-04 20:10 | 48.36702 | 11.82391 | 1536 ft | 152 kts | 265° |
| 2026-05-04 20:10 | 48.36588 | 11.80842 | 1461 ft | 137 kts | 265° |
| 2026-05-04 20:10 | 48.36495 | 11.79628 | 1455 ft | 86 kts | 264° |
| 2026-05-04 20:10 | 48.36421 | 11.78968 | 1461 ft | 43 kts | 243° |
| 2026-05-04 20:11 | 48.36314 | 11.78732 | 1462 ft | 15 kts | 233° |
| 2026-05-04 20:11 | 48.36276 | 11.78651 | 1462 ft | 7 kts | 237° |
| 2026-05-04 20:11 | 48.36251 | 11.78593 | 1463 ft | 5 kts | 238° |
| 2026-05-04 20:11 | 48.36232 | 11.78553 | 1463 ft | 4 kts | 231° |
| 2026-05-04 20:12 | 48.36216 | 11.78524 | 1463 ft | 3 kts | 231° |
| 2026-05-04 20:12 | 48.36185 | 11.78466 | 1464 ft | 11 kts | 231° |
| 2026-05-04 20:12 | 48.36130 | 11.78336 | 1465 ft | 15 kts | 255° |
| 2026-05-04 20:12 | 48.36113 | 11.78148 | 1462 ft | 22 kts | 263° |
| 2026-05-04 20:13 | 48.36092 | 11.77887 | 1461 ft | 26 kts | 263° |
| 2026-05-04 20:13 | 48.36077 | 11.77710 | 1461 ft | 10 kts | 262° |
| 2026-05-04 20:13 | 48.36027 | 11.77665 | 1461 ft | 9 kts | 173° |
| 2026-05-04 20:13 | 48.35953 | 11.77681 | 1461 ft | 13 kts | 171° |
| 2026-05-04 20:14 | 48.35842 | 11.77707 | 1461 ft | 18 kts | 172° |
| 2026-05-04 20:14 | 48.35717 | 11.77695 | 1463 ft | 16 kts | 187° |
| 2026-05-04 20:14 | 48.35612 | 11.77707 | 1465 ft | 13 kts | 170° |
| 2026-05-04 20:14 | 48.35553 | 11.77719 | 1466 ft | 0 kts | 173° |
| 2026-05-04 20:15 | 48.35531 | 11.77723 | 1467 ft | 7 kts | 172° |
| 2026-05-04 20:15 | 48.35509 | 11.77712 | 1467 ft | 3 kts | 244° |
| 2026-05-04 20:15 | 48.35502 | 11.77684 | 1468 ft | 2 kts | 256° |
| 2026-05-04 20:15 | 48.35498 | 11.77658 | 1468 ft | 0 kts | 259° |
| 2026-05-04 20:16 | 48.35498 | 11.77657 | 1468 ft | 0 kts | 259° |